• 1
  • 2
  • 1

 

 

 
NEU! ab. 1.4.
Nortel Info 128,740 MHz

WebCam

  
Kamera Halle
Kamera Vorfeld
Wetter EDDS

METAR

EDDS 141520Z 06007KT 9999 -SHSN FEW017 BKN022 M01/M06 Q1020 NOSIG =
EDDS 141100Z 1412/1512 08008KT 9999 BKN025 BECMG 1416/1418 08003KT


TAF

EDDS 141100Z 1412/1512 08008KT 9999 BKN025 BECMG 1416/1418 08003KT =


SR/SS

07:06 / 15:25 UTC
(EDSO 14-12-2018)